sensor_id;sensor_type;location;lat;lon;timestamp;temperature;humidity
23160;DHT22;11748;50.844;4.396;2023-01-24T00:00:08;5.10;99.90
23160;DHT22;11748;50.844;4.396;2023-01-24T00:02:35;5.00;99.90
23160;DHT22;11748;50.844;4.396;2023-01-24T00:05:01;5.00;99.90
23160;DHT22;11748;50.844;4.396;2023-01-24T00:07:26;5.00;99.90
23160;DHT22;11748;50.844;4.396;2023-01-24T00:09:52;5.00;99.90
23160;DHT22;11748;50.844;4.396;2023-01-24T00:12:18;5.00;99.90
23160;DHT22;11748;50.844;4.396;2023-01-24T00:14:43;5.10;99.90
23160;DHT22;11748;50.844;4.396;2023-01-24T00:17:10;5.00;99.90
23160;DHT22;11748;50.844;4.396;2023-01-24T00:19:36;5.00;99.90
23160;DHT22;11748;50.844;4.396;2023-01-24T00:22:03;5.10;99.90
23160;DHT22;11748;50.844;4.396;2023-01-24T00:24:30;5.10;99.90
23160;DHT22;11748;50.844;4.396;2023-01-24T00:26:58;5.10;99.90
23160;DHT22;11748;50.844;4.396;2023-01-24T00:29:24;5.10;99.90
23160;DHT22;11748;50.844;4.396;2023-01-24T00:31:50;5.20;99.90
23160;DHT22;11748;50.844;4.396;2023-01-24T00:34:15;5.10;99.90
23160;DHT22;11748;50.844;4.396;2023-01-24T00:36:41;5.10;99.90
23160;DHT22;11748;50.844;4.396;2023-01-24T00:39:09;5.10;99.90
23160;DHT22;11748;50.844;4.396;2023-01-24T00:41:35;5.00;99.90
23160;DHT22;11748;50.844;4.396;2023-01-24T00:44:01;5.10;99.90
23160;DHT22;11748;50.844;4.396;2023-01-24T00:46:27;5.10;99.90
23160;DHT22;11748;50.844;4.396;2023-01-24T00:48:53;5.20;99.90
23160;DHT22;11748;50.844;4.396;2023-01-24T00:51:18;5.20;99.90
23160;DHT22;11748;50.844;4.396;2023-01-24T00:53:45;5.30;99.90
23160;DHT22;11748;50.844;4.396;2023-01-24T00:56:11;5.30;99.90
23160;DHT22;11748;50.844;4.396;2023-01-24T00:58:37;5.10;99.90
23160;DHT22;11748;50.844;4.396;2023-01-24T01:01:03;5.10;99.90
23160;DHT22;11748;50.844;4.396;2023-01-24T01:03:29;5.10;99.90
23160;DHT22;11748;50.844;4.396;2023-01-24T01:06:00;5.00;99.90
23160;DHT22;11748;50.844;4.396;2023-01-24T01:08:26;5.00;99.90
23160;DHT22;11748;50.844;4.396;2023-01-24T01:10:53;4.90;99.90
23160;DHT22;11748;50.844;4.396;2023-01-24T01:13:19;5.00;99.90
23160;DHT22;11748;50.844;4.396;2023-01-24T01:15:44;5.00;99.90
23160;DHT22;11748;50.844;4.396;2023-01-24T01:18:10;5.00;99.90
23160;DHT22;11748;50.844;4.396;2023-01-24T01:20:36;5.00;99.90
23160;DHT22;11748;50.844;4.396;2023-01-24T01:23:02;5.00;99.90
23160;DHT22;11748;50.844;4.396;2023-01-24T01:25:27;5.00;99.90
23160;DHT22;11748;50.844;4.396;2023-01-24T01:27:53;5.10;99.90
23160;DHT22;11748;50.844;4.396;2023-01-24T01:30:19;5.00;99.90
23160;DHT22;11748;50.844;4.396;2023-01-24T01:32:45;5.10;99.90
23160;DHT22;11748;50.844;4.396;2023-01-24T01:35:11;5.10;99.90
23160;DHT22;11748;50.844;4.396;2023-01-24T01:37:37;5.10;99.90
23160;DHT22;11748;50.844;4.396;2023-01-24T01:40:03;5.00;99.90
23160;DHT22;11748;50.844;4.396;2023-01-24T01:42:49;5.10;99.90
23160;DHT22;11748;50.844;4.396;2023-01-24T01:45:39;5.10;99.90
23160;DHT22;11748;50.844;4.396;2023-01-24T01:48:36;5.10;99.90
23160;DHT22;11748;50.844;4.396;2023-01-24T01:53:44;5.00;99.90
23160;DHT22;11748;50.844;4.396;2023-01-24T01:58:55;5.00;99.90
23160;DHT22;11748;50.844;4.396;2023-01-24T02:01:22;5.20;99.90
23160;DHT22;11748;50.844;4.396;2023-01-24T02:03:52;5.10;99.90
23160;DHT22;11748;50.844;4.396;2023-01-24T02:06:27;5.00;99.90
23160;DHT22;11748;50.844;4.396;2023-01-24T02:08:56;5.00;99.90
23160;DHT22;11748;50.844;4.396;2023-01-24T02:11:25;5.00;99.90
23160;DHT22;11748;50.844;4.396;2023-01-24T02:14:10;4.90;99.90
23160;DHT22;11748;50.844;4.396;2023-01-24T02:16:55;4.90;99.90
23160;DHT22;11748;50.844;4.396;2023-01-24T02:21:49;4.90;99.90
23160;DHT22;11748;50.844;4.396;2023-01-24T02:24:27;4.90;99.90
23160;DHT22;11748;50.844;4.396;2023-01-24T02:26:54;4.90;99.90
23160;DHT22;11748;50.844;4.396;2023-01-24T02:29:20;4.90;99.90
23160;DHT22;11748;50.844;4.396;2023-01-24T02:31:57;4.90;99.90
23160;DHT22;11748;50.844;4.396;2023-01-24T02:34:24;5.00;99.90
23160;DHT22;11748;50.844;4.396;2023-01-24T02:36:54;4.90;99.90
23160;DHT22;11748;50.844;4.396;2023-01-24T02:39:26;5.00;99.90
23160;DHT22;11748;50.844;4.396;2023-01-24T02:42:07;5.00;99.90
23160;DHT22;11748;50.844;4.396;2023-01-24T02:44:48;5.00;99.90
23160;DHT22;11748;50.844;4.396;2023-01-24T02:47:14;5.00;99.90
23160;DHT22;11748;50.844;4.396;2023-01-24T02:49:40;5.10;99.90
23160;DHT22;11748;50.844;4.396;2023-01-24T02:52:07;5.20;99.90
23160;DHT22;11748;50.844;4.396;2023-01-24T02:54:52;5.20;99.90
23160;DHT22;11748;50.844;4.396;2023-01-24T02:57:18;5.20;99.90
23160;DHT22;11748;50.844;4.396;2023-01-24T03:00:06;5.10;99.90
23160;DHT22;11748;50.844;4.396;2023-01-24T03:02:33;5.30;99.90
23160;DHT22;11748;50.844;4.396;2023-01-24T03:04:58;5.30;99.90
23160;DHT22;11748;50.844;4.396;2023-01-24T03:07:24;5.30;99.90
23160;DHT22;11748;50.844;4.396;2023-01-24T03:09:50;5.30;99.90
23160;DHT22;11748;50.844;4.396;2023-01-24T03:12:16;5.30;99.90
23160;DHT22;11748;50.844;4.396;2023-01-24T03:15:00;5.20;99.90
23160;DHT22;11748;50.844;4.396;2023-01-24T03:17:44;5.20;99.90
23160;DHT22;11748;50.844;4.396;2023-01-24T03:20:29;5.10;99.90
23160;DHT22;11748;50.844;4.396;2023-01-24T03:23:13;5.00;99.90
23160;DHT22;11748;50.844;4.396;2023-01-24T03:25:58;5.00;99.90
23160;DHT22;11748;50.844;4.396;2023-01-24T03:28:42;5.00;99.90
23160;DHT22;11748;50.844;4.396;2023-01-24T03:31:28;4.90;99.90
23160;DHT22;11748;50.844;4.396;2023-01-24T03:34:12;5.10;99.90
23160;DHT22;11748;50.844;4.396;2023-01-24T03:37:12;5.10;99.90
23160;DHT22;11748;50.844;4.396;2023-01-24T03:39:38;5.00;99.90
23160;DHT22;11748;50.844;4.396;2023-01-24T03:42:19;5.00;99.90
23160;DHT22;11748;50.844;4.396;2023-01-24T03:44:44;5.00;99.90
23160;DHT22;11748;50.844;4.396;2023-01-24T03:47:11;5.00;99.90
23160;DHT22;11748;50.844;4.396;2023-01-24T03:49:37;5.00;99.90
23160;DHT22;11748;50.844;4.396;2023-01-24T03:52:21;5.10;99.90
23160;DHT22;11748;50.844;4.396;2023-01-24T03:54:57;5.20;99.90
23160;DHT22;11748;50.844;4.396;2023-01-24T03:57:23;5.10;99.90
23160;DHT22;11748;50.844;4.396;2023-01-24T03:59:50;5.00;99.90
23160;DHT22;11748;50.844;4.396;2023-01-24T04:02:16;5.00;99.90
23160;DHT22;11748;50.844;4.396;2023-01-24T04:04:42;5.10;99.90
23160;DHT22;11748;50.844;4.396;2023-01-24T04:07:27;5.10;99.90
23160;DHT22;11748;50.844;4.396;2023-01-24T04:09:56;5.20;99.90
23160;DHT22;11748;50.844;4.396;2023-01-24T04:12:24;5.10;99.90
23160;DHT22;11748;50.844;4.396;2023-01-24T04:14:50;5.10;99.90
23160;DHT22;11748;50.844;4.396;2023-01-24T04:17:16;5.10;99.90
23160;DHT22;11748;50.844;4.396;2023-01-24T04:19:46;5.00;99.90
23160;DHT22;11748;50.844;4.396;2023-01-24T04:22:14;5.10;99.90
23160;DHT22;11748;50.844;4.396;2023-01-24T04:24:46;5.10;99.90
23160;DHT22;11748;50.844;4.396;2023-01-24T04:27:12;5.10;99.90
23160;DHT22;11748;50.844;4.396;2023-01-24T04:29:44;5.00;99.90
23160;DHT22;11748;50.844;4.396;2023-01-24T04:32:10;5.00;99.90
23160;DHT22;11748;50.844;4.396;2023-01-24T04:34:36;5.00;99.90
23160;DHT22;11748;50.844;4.396;2023-01-24T04:37:04;5.00;99.90
23160;DHT22;11748;50.844;4.396;2023-01-24T04:39:30;5.10;99.90
23160;DHT22;11748;50.844;4.396;2023-01-24T04:41:56;5.10;99.90
23160;DHT22;11748;50.844;4.396;2023-01-24T04:44:22;5.00;99.90
23160;DHT22;11748;50.844;4.396;2023-01-24T04:46:48;5.10;99.90
23160;DHT22;11748;50.844;4.396;2023-01-24T04:49:15;5.10;99.90
23160;DHT22;11748;50.844;4.396;2023-01-24T04:51:41;5.00;99.90
23160;DHT22;11748;50.844;4.396;2023-01-24T04:54:10;5.00;99.90
23160;DHT22;11748;50.844;4.396;2023-01-24T04:56:36;5.00;99.90
23160;DHT22;11748;50.844;4.396;2023-01-24T04:59:02;5.00;99.90
23160;DHT22;11748;50.844;4.396;2023-01-24T05:01:28;5.10;99.90
23160;DHT22;11748;50.844;4.396;2023-01-24T05:03:54;5.20;99.90
23160;DHT22;11748;50.844;4.396;2023-01-24T05:06:25;5.20;99.90
23160;DHT22;11748;50.844;4.396;2023-01-24T05:08:52;5.20;99.90
23160;DHT22;11748;50.844;4.396;2023-01-24T05:11:18;5.10;99.90
23160;DHT22;11748;50.844;4.396;2023-01-24T05:13:43;5.10;99.90
23160;DHT22;11748;50.844;4.396;2023-01-24T05:16:09;5.10;99.90
23160;DHT22;11748;50.844;4.396;2023-01-24T05:18:35;5.10;99.90
23160;DHT22;11748;50.844;4.396;2023-01-24T05:21:29;5.10;99.90
23160;DHT22;11748;50.844;4.396;2023-01-24T05:23:55;5.20;99.90
23160;DHT22;11748;50.844;4.396;2023-01-24T05:26:23;5.20;99.90
23160;DHT22;11748;50.844;4.396;2023-01-24T05:28:50;5.00;99.90
23160;DHT22;11748;50.844;4.396;2023-01-24T05:31:16;5.00;99.90
23160;DHT22;11748;50.844;4.396;2023-01-24T05:33:43;5.00;99.90
23160;DHT22;11748;50.844;4.396;2023-01-24T05:36:15;4.90;99.90
23160;DHT22;11748;50.844;4.396;2023-01-24T05:38:42;4.90;99.90
23160;DHT22;11748;50.844;4.396;2023-01-24T05:41:10;4.90;99.90
23160;DHT22;11748;50.844;4.396;2023-01-24T05:43:36;4.90;99.90
23160;DHT22;11748;50.844;4.396;2023-01-24T05:46:09;5.00;99.90
23160;DHT22;11748;50.844;4.396;2023-01-24T05:48:35;5.10;99.90
23160;DHT22;11748;50.844;4.396;2023-01-24T05:51:09;4.90;99.90
23160;DHT22;11748;50.844;4.396;2023-01-24T05:53:37;5.00;99.90
23160;DHT22;11748;50.844;4.396;2023-01-24T05:56:06;5.00;99.90
23160;DHT22;11748;50.844;4.396;2023-01-24T05:58:35;5.00;99.90
23160;DHT22;11748;50.844;4.396;2023-01-24T06:01:01;4.90;99.90
23160;DHT22;11748;50.844;4.396;2023-01-24T06:03:30;4.90;99.90
23160;DHT22;11748;50.844;4.396;2023-01-24T06:05:56;4.90;99.90
23160;DHT22;11748;50.844;4.396;2023-01-24T06:08:22;4.90;99.90
23160;DHT22;11748;50.844;4.396;2023-01-24T06:10:47;4.80;99.90
23160;DHT22;11748;50.844;4.396;2023-01-24T06:13:14;4.80;99.90
23160;DHT22;11748;50.844;4.396;2023-01-24T06:15:40;4.80;99.90
23160;DHT22;11748;50.844;4.396;2023-01-24T06:18:07;4.80;99.90
23160;DHT22;11748;50.844;4.396;2023-01-24T06:20:34;4.90;99.90
23160;DHT22;11748;50.844;4.396;2023-01-24T06:23:05;4.90;99.90
23160;DHT22;11748;50.844;4.396;2023-01-24T06:25:31;5.00;99.90
23160;DHT22;11748;50.844;4.396;2023-01-24T06:27:57;5.00;99.90
23160;DHT22;11748;50.844;4.396;2023-01-24T06:30:26;5.10;99.90
23160;DHT22;11748;50.844;4.396;2023-01-24T06:33:01;5.00;99.90
23160;DHT22;11748;50.844;4.396;2023-01-24T06:35:35;5.00;99.90
23160;DHT22;11748;50.844;4.396;2023-01-24T06:38:02;5.00;99.90
23160;DHT22;11748;50.844;4.396;2023-01-24T06:40:28;4.90;99.90
23160;DHT22;11748;50.844;4.396;2023-01-24T06:42:54;4.90;99.90
23160;DHT22;11748;50.844;4.396;2023-01-24T06:45:21;4.80;99.90
23160;DHT22;11748;50.844;4.396;2023-01-24T06:47:46;4.90;99.90
23160;DHT22;11748;50.844;4.396;2023-01-24T06:50:17;5.00;99.90
23160;DHT22;11748;50.844;4.396;2023-01-24T06:52:46;4.90;99.90
23160;DHT22;11748;50.844;4.396;2023-01-24T06:55:13;4.90;99.90
23160;DHT22;11748;50.844;4.396;2023-01-24T06:57:44;4.90;99.90
23160;DHT22;11748;50.844;4.396;2023-01-24T07:00:12;4.90;99.90
23160;DHT22;11748;50.844;4.396;2023-01-24T07:02:38;5.00;99.90
23160;DHT22;11748;50.844;4.396;2023-01-24T07:05:05;4.90;99.90
23160;DHT22;11748;50.844;4.396;2023-01-24T07:07:30;4.80;99.90
23160;DHT22;11748;50.844;4.396;2023-01-24T07:09:56;4.90;99.90
23160;DHT22;11748;50.844;4.396;2023-01-24T07:12:22;4.90;99.90
23160;DHT22;11748;50.844;4.396;2023-01-24T07:14:48;4.90;99.90
23160;DHT22;11748;50.844;4.396;2023-01-24T07:17:14;4.90;99.90
23160;DHT22;11748;50.844;4.396;2023-01-24T07:19:40;4.80;99.90
23160;DHT22;11748;50.844;4.396;2023-01-24T07:22:11;4.80;99.90
23160;DHT22;11748;50.844;4.396;2023-01-24T07:24:37;4.80;99.90
23160;DHT22;11748;50.844;4.396;2023-01-24T07:27:04;4.90;99.90
23160;DHT22;11748;50.844;4.396;2023-01-24T07:29:31;4.90;99.90
23160;DHT22;11748;50.844;4.396;2023-01-24T07:31:59;4.90;99.90
23160;DHT22;11748;50.844;4.396;2023-01-24T07:34:28;4.90;99.90
23160;DHT22;11748;50.844;4.396;2023-01-24T07:36:55;4.70;99.90
23160;DHT22;11748;50.844;4.396;2023-01-24T07:39:29;4.70;99.90
23160;DHT22;11748;50.844;4.396;2023-01-24T07:41:55;4.80;99.90
23160;DHT22;11748;50.844;4.396;2023-01-24T07:44:21;4.80;99.90
23160;DHT22;11748;50.844;4.396;2023-01-24T07:46:47;4.80;99.90
23160;DHT22;11748;50.844;4.396;2023-01-24T07:49:13;4.80;99.90
23160;DHT22;11748;50.844;4.396;2023-01-24T07:51:38;4.70;99.90
23160;DHT22;11748;50.844;4.396;2023-01-24T07:54:05;4.70;99.90
23160;DHT22;11748;50.844;4.396;2023-01-24T07:56:31;4.70;99.90
23160;DHT22;11748;50.844;4.396;2023-01-24T07:58:57;4.70;99.90
23160;DHT22;11748;50.844;4.396;2023-01-24T08:01:24;4.70;99.90
23160;DHT22;11748;50.844;4.396;2023-01-24T08:03:53;4.80;99.90
23160;DHT22;11748;50.844;4.396;2023-01-24T08:06:18;4.80;99.90
23160;DHT22;11748;50.844;4.396;2023-01-24T08:08:44;4.90;99.90
23160;DHT22;11748;50.844;4.396;2023-01-24T08:11:10;4.90;99.90
23160;DHT22;11748;50.844;4.396;2023-01-24T08:13:36;4.80;99.90
23160;DHT22;11748;50.844;4.396;2023-01-24T08:16:03;4.90;99.90
23160;DHT22;11748;50.844;4.396;2023-01-24T08:18:29;4.80;99.90
23160;DHT22;11748;50.844;4.396;2023-01-24T08:20:55;4.80;99.90
23160;DHT22;11748;50.844;4.396;2023-01-24T08:23:21;4.80;99.90
23160;DHT22;11748;50.844;4.396;2023-01-24T08:25:47;4.80;99.90
23160;DHT22;11748;50.844;4.396;2023-01-24T08:28:13;4.90;99.90
23160;DHT22;11748;50.844;4.396;2023-01-24T08:30:40;4.90;99.90
23160;DHT22;11748;50.844;4.396;2023-01-24T08:33:06;4.90;99.90
23160;DHT22;11748;50.844;4.396;2023-01-24T08:35:33;4.90;99.90
23160;DHT22;11748;50.844;4.396;2023-01-24T08:37:59;4.90;99.90
23160;DHT22;11748;50.844;4.396;2023-01-24T08:40:25;5.00;99.90
23160;DHT22;11748;50.844;4.396;2023-01-24T08:42:51;4.90;99.90
23160;DHT22;11748;50.844;4.396;2023-01-24T08:45:17;4.90;99.90
23160;DHT22;11748;50.844;4.396;2023-01-24T08:47:43;4.90;99.90
23160;DHT22;11748;50.844;4.396;2023-01-24T08:50:10;5.00;99.90
23160;DHT22;11748;50.844;4.396;2023-01-24T08:52:38;5.00;99.90
23160;DHT22;11748;50.844;4.396;2023-01-24T08:55:04;4.90;99.90
23160;DHT22;11748;50.844;4.396;2023-01-24T08:57:30;4.80;99.90
23160;DHT22;11748;50.844;4.396;2023-01-24T08:59:56;4.80;99.90
23160;DHT22;11748;50.844;4.396;2023-01-24T09:02:22;4.80;99.90
23160;DHT22;11748;50.844;4.396;2023-01-24T09:04:47;4.80;99.90
23160;DHT22;11748;50.844;4.396;2023-01-24T09:07:20;4.80;99.90
23160;DHT22;11748;50.844;4.396;2023-01-24T09:09:47;4.90;99.90
23160;DHT22;11748;50.844;4.396;2023-01-24T09:12:12;4.80;99.90
23160;DHT22;11748;50.844;4.396;2023-01-24T09:14:38;4.90;99.90
23160;DHT22;11748;50.844;4.396;2023-01-24T09:17:04;4.90;99.90
23160;DHT22;11748;50.844;4.396;2023-01-24T09:19:30;4.90;99.90
23160;DHT22;11748;50.844;4.396;2023-01-24T09:21:55;5.00;99.90
23160;DHT22;11748;50.844;4.396;2023-01-24T09:24:22;5.00;99.90
23160;DHT22;11748;50.844;4.396;2023-01-24T09:26:48;5.00;99.90
23160;DHT22;11748;50.844;4.396;2023-01-24T09:29:14;5.00;99.90
23160;DHT22;11748;50.844;4.396;2023-01-24T09:31:40;5.10;99.90
23160;DHT22;11748;50.844;4.396;2023-01-24T09:34:06;5.10;99.90
23160;DHT22;11748;50.844;4.396;2023-01-24T09:36:32;5.20;99.90
23160;DHT22;11748;50.844;4.396;2023-01-24T09:38:59;5.20;99.90
23160;DHT22;11748;50.844;4.396;2023-01-24T09:44:02;5.20;99.90
23160;DHT22;11748;50.844;4.396;2023-01-24T09:52:34;5.30;99.90
23160;DHT22;11748;50.844;4.396;2023-01-24T09:55:05;5.30;99.90
23160;DHT22;11748;50.844;4.396;2023-01-24T10:00:32;5.20;99.90
23160;DHT22;11748;50.844;4.396;2023-01-24T10:03:31;5.30;99.90
23160;DHT22;11748;50.844;4.396;2023-01-24T10:06:22;5.40;99.90
23160;DHT22;11748;50.844;4.396;2023-01-24T10:25:26;5.30;99.90
23160;DHT22;11748;50.844;4.396;2023-01-24T10:27:56;5.30;99.90
23160;DHT22;11748;50.844;4.396;2023-01-24T10:30:41;5.30;99.90
23160;DHT22;11748;50.844;4.396;2023-01-24T10:33:15;5.30;99.90
23160;DHT22;11748;50.844;4.396;2023-01-24T10:36:11;5.40;99.90
23160;DHT22;11748;50.844;4.396;2023-01-24T10:38:41;5.50;99.90
23160;DHT22;11748;50.844;4.396;2023-01-24T10:41:16;5.60;99.90
23160;DHT22;11748;50.844;4.396;2023-01-24T10:43:49;5.50;99.90
23160;DHT22;11748;50.844;4.396;2023-01-24T10:47:02;5.50;99.90
23160;DHT22;11748;50.844;4.396;2023-01-24T10:49:03;5.60;99.90
23160;DHT22;11748;50.844;4.396;2023-01-24T10:51:32;5.60;99.90
23160;DHT22;11748;50.844;4.396;2023-01-24T10:54:01;5.60;99.90
23160;DHT22;11748;50.844;4.396;2023-01-24T10:56:28;5.70;99.90
23160;DHT22;11748;50.844;4.396;2023-01-24T10:59:08;5.80;99.90
23160;DHT22;11748;50.844;4.396;2023-01-24T11:01:42;5.90;99.90
23160;DHT22;11748;50.844;4.396;2023-01-24T11:04:24;5.80;99.90
23160;DHT22;11748;50.844;4.396;2023-01-24T11:06:51;5.70;99.90
23160;DHT22;11748;50.844;4.396;2023-01-24T11:09:19;5.80;99.90
23160;DHT22;11748;50.844;4.396;2023-01-24T11:11:56;5.70;99.90
23160;DHT22;11748;50.844;4.396;2023-01-24T11:14:23;5.80;99.90
23160;DHT22;11748;50.844;4.396;2023-01-24T11:16:53;5.80;99.90
23160;DHT22;11748;50.844;4.396;2023-01-24T11:21:53;5.70;99.90
23160;DHT22;11748;50.844;4.396;2023-01-24T11:24:20;5.80;99.90
23160;DHT22;11748;50.844;4.396;2023-01-24T11:26:56;5.80;99.90
23160;DHT22;11748;50.844;4.396;2023-01-24T11:29:23;5.70;99.90
23160;DHT22;11748;50.844;4.396;2023-01-24T11:31:54;5.80;99.90
23160;DHT22;11748;50.844;4.396;2023-01-24T11:34:45;5.60;99.90
23160;DHT22;11748;50.844;4.396;2023-01-24T11:37:39;5.60;99.90
23160;DHT22;11748;50.844;4.396;2023-01-24T11:40:14;5.60;99.90
23160;DHT22;11748;50.844;4.396;2023-01-24T11:48:25;5.50;99.90
23160;DHT22;11748;50.844;4.396;2023-01-24T11:53:58;5.60;99.90
23160;DHT22;11748;50.844;4.396;2023-01-24T12:05:04;5.60;99.90
23160;DHT22;11748;50.844;4.396;2023-01-24T12:16:02;5.60;99.90
23160;DHT22;11748;50.844;4.396;2023-01-24T12:21:36;5.80;99.90
23160;DHT22;11748;50.844;4.396;2023-01-24T12:24:08;5.90;99.90
23160;DHT22;11748;50.844;4.396;2023-01-24T12:26:50;5.90;99.90
23160;DHT22;11748;50.844;4.396;2023-01-24T12:29:22;5.90;99.90
23160;DHT22;11748;50.844;4.396;2023-01-24T12:37:55;6.10;99.90
23160;DHT22;11748;50.844;4.396;2023-01-24T12:40:48;6.10;99.90
23160;DHT22;11748;50.844;4.396;2023-01-24T12:44:23;6.20;99.90
23160;DHT22;11748;50.844;4.396;2023-01-24T12:51:56;6.30;99.90
23160;DHT22;11748;50.844;4.396;2023-01-24T12:57:30;6.20;99.90
23160;DHT22;11748;50.844;4.396;2023-01-24T12:59:57;6.30;99.90
23160;DHT22;11748;50.844;4.396;2023-01-24T13:13:39;6.20;99.90
23160;DHT22;11748;50.844;4.396;2023-01-24T13:16:22;6.10;99.90
23160;DHT22;11748;50.844;4.396;2023-01-24T13:29:57;6.20;99.90
23160;DHT22;11748;50.844;4.396;2023-01-24T13:32:26;6.20;99.90
23160;DHT22;11748;50.844;4.396;2023-01-24T13:34:56;6.20;99.90
23160;DHT22;11748;50.844;4.396;2023-01-24T13:37:23;6.20;99.90
23160;DHT22;11748;50.844;4.396;2023-01-24T13:40:44;6.10;99.90
23160;DHT22;11748;50.844;4.396;2023-01-24T13:42:45;6.10;99.90
23160;DHT22;11748;50.844;4.396;2023-01-24T13:47:49;6.00;99.90
23160;DHT22;11748;50.844;4.396;2023-01-24T13:50:19;6.10;99.90
23160;DHT22;11748;50.844;4.396;2023-01-24T13:52:47;6.10;99.90
23160;DHT22;11748;50.844;4.396;2023-01-24T14:00:56;6.40;99.90
23160;DHT22;11748;50.844;4.396;2023-01-24T14:03:32;6.40;99.90
23160;DHT22;11748;50.844;4.396;2023-01-24T14:06:11;6.40;99.90
23160;DHT22;11748;50.844;4.396;2023-01-24T14:08:44;6.40;99.90
23160;DHT22;11748;50.844;4.396;2023-01-24T14:11:22;6.20;99.90
23160;DHT22;11748;50.844;4.396;2023-01-24T14:21:30;6.30;99.90
23160;DHT22;11748;50.844;4.396;2023-01-24T14:24:28;6.20;99.90
23160;DHT22;11748;50.844;4.396;2023-01-24T14:26:57;6.10;99.90
23160;DHT22;11748;50.844;4.396;2023-01-24T14:29:42;6.10;99.90
23160;DHT22;11748;50.844;4.396;2023-01-24T14:32:25;6.20;99.90
23160;DHT22;11748;50.844;4.396;2023-01-24T14:35:19;6.10;99.90
23160;DHT22;11748;50.844;4.396;2023-01-24T14:37:47;6.10;99.90
23160;DHT22;11748;50.844;4.396;2023-01-24T14:40:27;6.10;99.90
23160;DHT22;11748;50.844;4.396;2023-01-24T14:43:02;6.10;99.90
23160;DHT22;11748;50.844;4.396;2023-01-24T14:45:30;6.10;99.90
23160;DHT22;11748;50.844;4.396;2023-01-24T14:47:58;6.10;99.90
23160;DHT22;11748;50.844;4.396;2023-01-24T14:50:30;6.10;99.90
23160;DHT22;11748;50.844;4.396;2023-01-24T14:55:59;6.10;99.90
23160;DHT22;11748;50.844;4.396;2023-01-24T14:58:28;6.10;99.90
23160;DHT22;11748;50.844;4.396;2023-01-24T15:00:58;6.00;99.90
23160;DHT22;11748;50.844;4.396;2023-01-24T15:03:33;6.00;99.90
23160;DHT22;11748;50.844;4.396;2023-01-24T15:08:29;6.20;99.90
23160;DHT22;11748;50.844;4.396;2023-01-24T15:13:35;6.00;99.90
23160;DHT22;11748;50.844;4.396;2023-01-24T15:16:08;6.00;99.90
23160;DHT22;11748;50.844;4.396;2023-01-24T15:21:28;6.00;99.90
23160;DHT22;11748;50.844;4.396;2023-01-24T15:23:55;5.80;99.90
23160;DHT22;11748;50.844;4.396;2023-01-24T15:28:56;5.80;99.90
23160;DHT22;11748;50.844;4.396;2023-01-24T15:31:31;5.90;99.90
23160;DHT22;11748;50.844;4.396;2023-01-24T15:33:58;5.90;99.90
23160;DHT22;11748;50.844;4.396;2023-01-24T15:36:32;5.80;99.90
23160;DHT22;11748;50.844;4.396;2023-01-24T15:39:01;5.80;99.90
23160;DHT22;11748;50.844;4.396;2023-01-24T15:41:46;5.70;99.90
23160;DHT22;11748;50.844;4.396;2023-01-24T15:44:44;5.70;99.90
23160;DHT22;11748;50.844;4.396;2023-01-24T15:47:22;5.60;99.90
23160;DHT22;11748;50.844;4.396;2023-01-24T15:50:26;5.60;99.90
23160;DHT22;11748;50.844;4.396;2023-01-24T15:53:22;5.50;99.90
23160;DHT22;11748;50.844;4.396;2023-01-24T15:55:50;5.50;99.90
23160;DHT22;11748;50.844;4.396;2023-01-24T15:58:19;5.50;99.90
23160;DHT22;11748;50.844;4.396;2023-01-24T16:00:58;5.50;99.90
23160;DHT22;11748;50.844;4.396;2023-01-24T16:03:25;5.50;99.90
23160;DHT22;11748;50.844;4.396;2023-01-24T16:05:52;5.50;99.90
23160;DHT22;11748;50.844;4.396;2023-01-24T16:08:18;5.50;99.90
23160;DHT22;11748;50.844;4.396;2023-01-24T16:10:45;5.60;99.90
23160;DHT22;11748;50.844;4.396;2023-01-24T16:15:51;5.60;99.90
23160;DHT22;11748;50.844;4.396;2023-01-24T16:18:20;5.50;99.90
23160;DHT22;11748;50.844;4.396;2023-01-24T16:20:47;5.40;99.90
23160;DHT22;11748;50.844;4.396;2023-01-24T16:23:13;5.40;99.90
23160;DHT22;11748;50.844;4.396;2023-01-24T16:25:41;5.30;99.90
23160;DHT22;11748;50.844;4.396;2023-01-24T16:28:21;5.30;99.90
23160;DHT22;11748;50.844;4.396;2023-01-24T16:30:49;5.30;99.90
23160;DHT22;11748;50.844;4.396;2023-01-24T16:33:16;5.20;99.90
23160;DHT22;11748;50.844;4.396;2023-01-24T16:35:42;5.30;99.90
23160;DHT22;11748;50.844;4.396;2023-01-24T16:38:14;5.30;99.90
23160;DHT22;11748;50.844;4.396;2023-01-24T16:40:40;5.30;99.90
23160;DHT22;11748;50.844;4.396;2023-01-24T16:43:07;5.30;99.90
23160;DHT22;11748;50.844;4.396;2023-01-24T16:45:33;5.30;99.90
23160;DHT22;11748;50.844;4.396;2023-01-24T16:47:59;5.30;99.90
23160;DHT22;11748;50.844;4.396;2023-01-24T16:50:26;5.30;99.90
23160;DHT22;11748;50.844;4.396;2023-01-24T16:52:52;5.30;99.90
23160;DHT22;11748;50.844;4.396;2023-01-24T16:55:19;5.30;99.90
23160;DHT22;11748;50.844;4.396;2023-01-24T16:57:45;5.30;99.90
23160;DHT22;11748;50.844;4.396;2023-01-24T17:00:12;5.20;99.90
23160;DHT22;11748;50.844;4.396;2023-01-24T17:02:42;5.30;99.90
23160;DHT22;11748;50.844;4.396;2023-01-24T17:05:09;5.40;99.90
23160;DHT22;11748;50.844;4.396;2023-01-24T17:07:35;5.40;99.90
23160;DHT22;11748;50.844;4.396;2023-01-24T17:10:01;5.30;99.90
23160;DHT22;11748;50.844;4.396;2023-01-24T17:12:29;5.30;99.90
23160;DHT22;11748;50.844;4.396;2023-01-24T17:14:55;5.30;99.90
23160;DHT22;11748;50.844;4.396;2023-01-24T17:17:21;5.30;99.90
23160;DHT22;11748;50.844;4.396;2023-01-24T17:19:50;5.40;99.90
23160;DHT22;11748;50.844;4.396;2023-01-24T17:22:16;5.30;99.90
23160;DHT22;11748;50.844;4.396;2023-01-24T17:24:42;5.40;99.90
23160;DHT22;11748;50.844;4.396;2023-01-24T17:27:07;5.40;99.90
23160;DHT22;11748;50.844;4.396;2023-01-24T17:29:33;5.30;99.90
23160;DHT22;11748;50.844;4.396;2023-01-24T17:32:02;5.30;99.90
23160;DHT22;11748;50.844;4.396;2023-01-24T17:34:28;5.30;99.90
23160;DHT22;11748;50.844;4.396;2023-01-24T17:36:55;5.30;99.90
23160;DHT22;11748;50.844;4.396;2023-01-24T17:39:21;5.40;99.90
23160;DHT22;11748;50.844;4.396;2023-01-24T17:41:46;5.30;99.90
23160;DHT22;11748;50.844;4.396;2023-01-24T17:44:13;5.20;99.90
23160;DHT22;11748;50.844;4.396;2023-01-24T17:46:44;5.00;99.90
23160;DHT22;11748;50.844;4.396;2023-01-24T17:49:10;5.00;99.90
23160;DHT22;11748;50.844;4.396;2023-01-24T17:51:39;5.00;99.90
23160;DHT22;11748;50.844;4.396;2023-01-24T17:54:12;5.00;99.90
23160;DHT22;11748;50.844;4.396;2023-01-24T17:56:39;5.00;99.90
23160;DHT22;11748;50.844;4.396;2023-01-24T17:59:05;5.10;99.90
23160;DHT22;11748;50.844;4.396;2023-01-24T18:01:37;5.10;99.90
23160;DHT22;11748;50.844;4.396;2023-01-24T18:04:03;5.20;99.90
23160;DHT22;11748;50.844;4.396;2023-01-24T18:06:30;5.20;99.90
23160;DHT22;11748;50.844;4.396;2023-01-24T18:08:58;5.20;99.90
23160;DHT22;11748;50.844;4.396;2023-01-24T18:11:24;5.30;99.90
23160;DHT22;11748;50.844;4.396;2023-01-24T18:13:53;5.20;99.90
23160;DHT22;11748;50.844;4.396;2023-01-24T18:16:19;5.20;99.90
23160;DHT22;11748;50.844;4.396;2023-01-24T18:18:46;5.30;99.90